Time;durP1;ratioP1;P1;durP2;ratioP2;P2;SDS_P1;SDS_P2;PMS_P1;PMS_P2;Temp;Humidity;BMP_temperature;BMP_pressure;BME280_temperature;BME280_humidity;BME280_pressure;Samples;Min_cycle;Max_cycle;Signal;HPM_P1;HPM_P2
2020/12/14 00:01:00;;;;;;;14.10;11.15;;;;;;;;;;5094137;28;20249;-64
2020/12/14 00:03:28;;;;;;;13.23;10.65;;;;;;;;;;5094344;28;20196;-63
2020/12/14 00:05:55;;;;;;;12.30;10.20;;;;;;;;;;5093710;28;20211;-63
2020/12/14 00:08:21;;;;;;;13.50;11.00;;;;;;;;;;5093815;28;20269;-64
2020/12/14 00:10:48;;;;;;;12.00;9.85;;;;;;;;;;5093778;28;20277;-64
2020/12/14 00:13:15;;;;;;;11.02;8.95;;;;;;;;;;5094982;28;20263;-63
2020/12/14 00:15:41;;;;;;;11.80;9.80;;;;;;;;;;5095204;28;20201;-64
2020/12/14 00:18:08;;;;;;;11.73;9.57;;;;;;;;;;5096007;28;20192;-64
2020/12/14 00:20:36;;;;;;;13.55;9.93;;;;;;;;;;5095881;28;20246;-63
2020/12/14 00:23:03;;;;;;;13.35;10.57;;;;;;;;;;5098384;28;20203;-63
2020/12/14 00:25:30;;;;;;;12.35;10.90;;;;;;;;;;5098936;28;20208;-63
2020/12/14 00:27:56;;;;;;;11.20;9.48;;;;;;;;;;5098661;28;20212;-63
2020/12/14 00:30:23;;;;;;;12.68;10.65;;;;;;;;;;5098411;28;20223;-65
2020/12/14 00:32:50;;;;;;;11.55;9.35;;;;;;;;;;5098516;28;20328;-64
2020/12/14 00:35:17;;;;;;;11.65;9.40;;;;;;;;;;5099298;28;20250;-64
2020/12/14 00:37:45;;;;;;;10.95;9.82;;;;;;;;;;5097975;28;20204;-64
2020/12/14 00:40:11;;;;;;;10.80;9.15;;;;;;;;;;5098421;28;20286;-64
2020/12/14 00:42:42;;;;;;;9.93;8.93;;;;;;;;;;5097808;28;20672;-63
2020/12/14 00:45:09;;;;;;;11.85;9.70;;;;;;;;;;5098811;28;20273;-62
2020/12/14 00:47:35;;;;;;;10.90;8.80;;;;;;;;;;5097503;28;20672;-64
2020/12/14 00:50:02;;;;;;;10.52;9.35;;;;;;;;;;5097810;28;20723;-65
2020/12/14 00:52:29;;;;;;;10.13;8.93;;;;;;;;;;5098311;28;20250;-64
2020/12/14 00:54:56;;;;;;;11.88;9.35;;;;;;;;;;5101797;28;20208;-63
2020/12/14 00:57:23;;;;;;;9.75;8.40;;;;;;;;;;5110970;28;20291;-64
2020/12/14 00:59:50;;;;;;;9.75;8.57;;;;;;;;;;5111943;28;20224;-64
2020/12/14 01:02:22;;;;;;;9.35;8.40;;;;;;;;;;5111603;28;20664;-64
2020/12/14 01:04:49;;;;;;;8.80;7.43;;;;;;;;;;5109521;28;20207;-64
2020/12/14 01:07:16;;;;;;;8.70;7.20;;;;;;;;;;5110000;28;20671;-64
2020/12/14 01:09:42;;;;;;;10.60;7.85;;;;;;;;;;5103999;28;20274;-63
2020/12/14 01:12:10;;;;;;;9.18;7.85;;;;;;;;;;5100774;28;20204;-65
2020/12/14 01:14:37;;;;;;;10.80;8.43;;;;;;;;;;5100635;28;20203;-64
2020/12/14 01:17:03;;;;;;;9.15;7.38;;;;;;;;;;5100364;28;20204;-61
2020/12/14 01:19:30;;;;;;;10.18;8.20;;;;;;;;;;5099622;28;20197;-64
2020/12/14 01:21:57;;;;;;;9.52;7.47;;;;;;;;;;5102621;28;20228;-63
2020/12/14 01:24:24;;;;;;;10.60;8.38;;;;;;;;;;5102717;28;20196;-65
2020/12/14 01:26:50;;;;;;;9.20;8.20;;;;;;;;;;5102120;28;20208;-64
2020/12/14 01:29:18;;;;;;;10.70;9.05;;;;;;;;;;5103750;28;20227;-64
2020/12/14 01:31:45;;;;;;;12.63;8.68;;;;;;;;;;5103859;28;20224;-64
2020/12/14 01:34:12;;;;;;;12.25;9.73;;;;;;;;;;5104426;28;20230;-64
2020/12/14 01:36:38;;;;;;;12.70;9.85;;;;;;;;;;5108145;28;20201;-64
2020/12/14 01:39:05;;;;;;;13.30;10.38;;;;;;;;;;5109365;28;20226;-64
2020/12/14 01:41:32;;;;;;;11.60;9.43;;;;;;;;;;5107696;28;20220;-64
2020/12/14 01:43:58;;;;;;;11.73;9.23;;;;;;;;;;5106940;28;20200;-64
2020/12/14 01:46:30;;;;;;;12.88;9.48;;;;;;;;;;5107109;28;20612;-64
2020/12/14 01:49:00;;;;;;;10.13;8.50;;;;;;;;;;5106473;28;20230;-64
2020/12/14 01:51:27;;;;;;;10.88;9.60;;;;;;;;;;5105689;28;20597;-64
2020/12/14 01:53:55;;;;;;;10.88;8.73;;;;;;;;;;5096570;28;20196;-64
2020/12/14 01:56:23;;;;;;;11.35;9.27;;;;;;;;;;5096984;28;20204;-65
2020/12/14 01:58:50;;;;;;;16.83;10.70;;;;;;;;;;5096710;28;20200;-63
2020/12/14 02:01:16;;;;;;;11.82;8.80;;;;;;;;;;5096459;28;20219;-64
2020/12/14 02:03:44;;;;;;;11.75;9.38;;;;;;;;;;5096925;28;20197;-65
2020/12/14 02:06:11;;;;;;;13.65;10.18;;;;;;;;;;5096219;28;20262;-64
2020/12/14 02:08:38;;;;;;;11.60;9.93;;;;;;;;;;5096238;28;20289;-64
2020/12/14 02:11:04;;;;;;;13.40;9.77;;;;;;;;;;5095624;28;20286;-63
2020/12/14 02:13:31;;;;;;;10.80;9.70;;;;;;;;;;5095935;28;20204;-64
2020/12/14 02:15:58;;;;;;;13.02;10.68;;;;;;;;;;5096416;28;20321;-64
2020/12/14 02:18:25;;;;;;;14.18;9.77;;;;;;;;;;5096141;28;20254;-63
2020/12/14 02:20:52;;;;;;;14.23;9.52;;;;;;;;;;5095841;28;20220;-63
2020/12/14 02:23:19;;;;;;;12.15;9.57;;;;;;;;;;5095540;28;20542;-62
2020/12/14 02:25:47;;;;;;;11.30;10.10;;;;;;;;;;5095998;28;20684;-64
2020/12/14 02:28:14;;;;;;;13.10;10.10;;;;;;;;;;5096110;28;20220;-63
2020/12/14 02:30:41;;;;;;;11.50;9.27;;;;;;;;;;5096251;28;20220;-64
2020/12/14 02:33:07;;;;;;;13.60;10.13;;;;;;;;;;5095592;28;20201;-64
2020/12/14 02:35:34;;;;;;;11.63;9.55;;;;;;;;;;5095936;28;20201;-63
2020/12/14 02:38:01;;;;;;;11.50;8.93;;;;;;;;;;5095487;28;20197;-63
2020/12/14 02:40:28;;;;;;;10.95;9.50;;;;;;;;;;5095466;28;20232;-64
2020/12/14 02:42:55;;;;;;;10.30;9.13;;;;;;;;;;5096252;28;20249;-63
2020/12/14 02:45:22;;;;;;;12.63;9.55;;;;;;;;;;5095582;28;20250;-63
2020/12/14 02:47:49;;;;;;;11.10;8.95;;;;;;;;;;5094895;28;20257;-63
2020/12/14 02:50:16;;;;;;;11.30;8.57;;;;;;;;;;5095289;28;20216;-64
2020/12/14 02:52:42;;;;;;;11.27;8.68;;;;;;;;;;5095082;28;20204;-63
2020/12/14 02:55:09;;;;;;;10.68;9.32;;;;;;;;;;5095023;28;20204;-62
2020/12/14 02:57:36;;;;;;;11.52;8.65;;;;;;;;;;5095151;28;20710;-65
2020/12/14 03:00:04;;;;;;;10.18;9.10;;;;;;;;;;5094708;28;20624;-64
2020/12/14 03:02:31;;;;;;;12.45;9.48;;;;;;;;;;5096356;28;20196;-64
2020/12/14 03:04:58;;;;;;;10.48;8.30;;;;;;;;;;5094904;28;20254;-64
2020/12/14 03:07:25;;;;;;;10.30;8.20;;;;;;;;;;5094893;28;20208;-64
2020/12/14 03:09:51;;;;;;;11.82;8.77;;;;;;;;;;5094627;28;20232;-63
2020/12/14 03:12:18;;;;;;;11.07;8.80;;;;;;;;;;5094960;28;20200;-63
2020/12/14 03:14:45;;;;;;;9.48;8.38;;;;;;;;;;5094807;28;20207;-64
2020/12/14 03:17:12;;;;;;;11.75;8.75;;;;;;;;;;5094648;28;20262;-63
2020/12/14 03:19:39;;;;;;;8.88;7.95;;;;;;;;;;5094682;28;20230;-63
2020/12/14 03:22:06;;;;;;;11.30;7.75;;;;;;;;;;5094607;28;20200;-63
2020/12/14 03:24:33;;;;;;;8.60;7.40;;;;;;;;;;5094716;28;20204;-64
2020/12/14 03:26:59;;;;;;;9.90;7.50;;;;;;;;;;5094680;28;20253;-64
2020/12/14 03:29:26;;;;;;;9.85;7.30;;;;;;;;;;5094472;28;20231;-64
2020/12/14 03:31:53;;;;;;;8.68;7.50;;;;;;;;;;5094283;28;20226;-64
2020/12/14 03:34:20;;;;;;;10.80;7.35;;;;;;;;;;5094531;28;20196;-63
2020/12/14 03:36:47;;;;;;;9.52;7.18;;;;;;;;;;5094835;28;20197;-64
2020/12/14 03:39:14;;;;;;;7.95;6.00;;;;;;;;;;5094274;28;20203;-64
2020/12/14 03:41:40;;;;;;;8.52;6.50;;;;;;;;;;5094255;28;20269;-64
2020/12/14 03:44:07;;;;;;;9.70;6.95;;;;;;;;;;5094224;28;20203;-63
2020/12/14 03:46:35;;;;;;;7.97;6.45;;;;;;;;;;5094024;28;20660;-64
2020/12/14 03:49:02;;;;;;;7.43;6.70;;;;;;;;;;5094362;28;20256;-62
2020/12/14 03:51:30;;;;;;;6.80;6.10;;;;;;;;;;5094311;28;20221;-63
2020/12/14 03:53:57;;;;;;;6.90;6.20;;;;;;;;;;5095113;28;20204;-63
2020/12/14 03:56:24;;;;;;;6.90;5.57;;;;;;;;;;5095195;28;20204;-63
2020/12/14 03:58:52;;;;;;;7.57;6.78;;;;;;;;;;5094414;28;20201;-64
2020/12/14 04:01:20;;;;;;;6.40;5.75;;;;;;;;;;5094115;28;20273;-63
2020/12/14 04:03:46;;;;;;;6.05;5.45;;;;;;;;;;5094629;28;20204;-63
2020/12/14 04:07:28;;;;;;;7.30;6.53;;;;;;;;;;5034590;28;20570;-63
2020/12/14 04:09:54;;;;;;;9.57;6.55;;;;;;;;;;5041512;28;20226;-63
2020/12/14 04:12:21;;;;;;;7.82;6.65;;;;;;;;;;5040903;28;20260;-63
2020/12/14 04:14:48;;;;;;;7.35;6.40;;;;;;;;;;5040723;28;20252;-64
2020/12/14 04:17:15;;;;;;;7.13;6.43;;;;;;;;;;5036977;28;20202;-63
2020/12/14 04:19:41;;;;;;;7.70;6.60;;;;;;;;;;5035126;28;20260;-63
2020/12/14 04:22:09;;;;;;;6.93;6.32;;;;;;;;;;5035826;28;20225;-63
2020/12/14 04:24:37;;;;;;;7.20;6.38;;;;;;;;;;5035834;28;20202;-63
2020/12/14 04:27:04;;;;;;;6.53;5.90;;;;;;;;;;5035724;28;20223;-64
2020/12/14 04:29:31;;;;;;;7.95;6.07;;;;;;;;;;5037739;28;20245;-64
2020/12/14 04:31:57;;;;;;;9.90;7.20;;;;;;;;;;5041604;28;20210;-64
2020/12/14 04:34:24;;;;;;;8.63;6.40;;;;;;;;;;5040169;28;20675;-63
2020/12/14 04:36:51;;;;;;;6.40;5.47;;;;;;;;;;5036748;28;20229;-63
2020/12/14 04:39:18;;;;;;;7.47;6.60;;;;;;;;;;5033319;28;20233;-62
2020/12/14 04:41:46;;;;;;;7.40;5.93;;;;;;;;;;5033091;28;20218;-63
2020/12/14 04:44:13;;;;;;;6.82;6.15;;;;;;;;;;5033401;28;20615;-63
2020/12/14 04:46:40;;;;;;;6.75;5.70;;;;;;;;;;5033556;28;20226;-63
2020/12/14 04:49:07;;;;;;;7.07;6.38;;;;;;;;;;5033518;28;20667;-63
2020/12/14 04:51:34;;;;;;;8.43;5.30;;;;;;;;;;5033008;28;20272;-64
2020/12/14 04:54:01;;;;;;;6.55;5.45;;;;;;;;;;5033324;28;20206;-63
2020/12/14 04:56:28;;;;;;;6.18;5.57;;;;;;;;;;5031649;28;20260;-63
2020/12/14 04:58:57;;;;;;;6.10;5.50;;;;;;;;;;5031034;28;20206;-64
2020/12/14 05:01:24;;;;;;;8.45;5.50;;;;;;;;;;5031295;28;20233;-63
2020/12/14 05:03:51;;;;;;;6.75;6.00;;;;;;;;;;5030818;28;20210;-62
2020/12/14 05:06:18;;;;;;;6.28;5.03;;;;;;;;;;5041001;28;20222;-62
2020/12/14 05:08:44;;;;;;;6.70;5.45;;;;;;;;;;5050106;28;20198;-64
2020/12/14 05:11:11;;;;;;;6.32;5.63;;;;;;;;;;5049877;28;20222;-64
2020/12/14 05:13:39;;;;;;;5.03;4.53;;;;;;;;;;5049515;28;20202;-62
2020/12/14 05:16:07;;;;;;;8.23;5.40;;;;;;;;;;5050033;28;20198;-62
2020/12/14 05:18:34;;;;;;;5.43;4.90;;;;;;;;;;5038087;28;20203;-61
2020/12/14 05:21:01;;;;;;;6.75;5.10;;;;;;;;;;5036763;28;20222;-61
2020/12/14 05:23:28;;;;;;;6.45;4.72;;;;;;;;;;5037212;28;20203;-63
2020/12/14 05:26:03;;;;;;;8.32;5.43;;;;;;;;;;5036642;28;20344;-64
2020/12/14 05:28:30;;;;;;;6.15;4.85;;;;;;;;;;5036607;28;20243;-62
2020/12/14 05:30:57;;;;;;;5.20;4.78;;;;;;;;;;5037001;28;20226;-62
2020/12/14 05:33:25;;;;;;;5.47;4.95;;;;;;;;;;5037740;28;20612;-62
2020/12/14 05:35:53;;;;;;;6.25;5.65;;;;;;;;;;5036960;28;20202;-63
2020/12/14 05:38:21;;;;;;;4.75;4.35;;;;;;;;;;5036481;28;20210;-63
2020/12/14 05:40:49;;;;;;;5.68;4.85;;;;;;;;;;5036587;28;20789;-62
2020/12/14 05:43:16;;;;;;;8.93;5.15;;;;;;;;;;5035797;28;20628;-63
2020/12/14 05:45:44;;;;;;;4.65;4.25;;;;;;;;;;5035907;28;20300;-62
2020/12/14 05:48:23;;;;;;;5.45;4.20;;;;;;;;;;5035994;28;20629;-62
2020/12/14 05:50:52;;;;;;;4.80;4.40;;;;;;;;;;5035877;28;20272;-63
2020/12/14 05:53:20;;;;;;;5.25;4.78;;;;;;;;;;5036084;28;20207;-62
2020/12/14 05:55:47;;;;;;;4.93;4.43;;;;;;;;;;5035922;28;20287;-61
2020/12/14 05:58:15;;;;;;;6.32;4.78;;;;;;;;;;5035591;28;20202;-62
2020/12/14 06:00:43;;;;;;;5.45;4.15;;;;;;;;;;5036122;28;20318;-62
2020/12/14 06:03:11;;;;;;;5.47;4.30;;;;;;;;;;5035575;28;20206;-62
2020/12/14 06:05:38;;;;;;;5.07;3.88;;;;;;;;;;5035746;28;20249;-63
2020/12/14 06:08:26;;;;;;;5.30;4.35;;;;;;;;;;5035730;28;20206;-63
2020/12/14 06:10:59;;;;;;;4.07;3.72;;;;;;;;;;5035773;28;20234;-63
2020/12/14 06:13:30;;;;;;;4.88;4.35;;;;;;;;;;5035859;28;20186;-62
2020/12/14 06:16:00;;;;;;;4.68;4.18;;;;;;;;;;5035453;28;20535;-63
2020/12/14 06:18:29;;;;;;;4.22;3.80;;;;;;;;;;5035678;28;20225;-61
2020/12/14 06:20:56;;;;;;;4.25;3.58;;;;;;;;;;5035188;28;20230;-62
2020/12/14 06:23:24;;;;;;;4.65;3.63;;;;;;;;;;5035575;28;20207;-61
2020/12/14 06:25:51;;;;;;;6.10;3.80;;;;;;;;;;5035298;28;20258;-59
2020/12/14 06:28:28;;;;;;;5.00;4.00;;;;;;;;;;5035428;28;20260;-61
2020/12/14 06:30:55;;;;;;;5.00;3.78;;;;;;;;;;5035359;28;20313;-60
2020/12/14 06:33:33;;;;;;;5.28;3.70;;;;;;;;;;5035833;28;20256;-60
2020/12/14 06:36:14;;;;;;;4.78;3.90;;;;;;;;;;5035848;28;20236;-61
2020/12/14 06:38:42;;;;;;;4.15;3.60;;;;;;;;;;5035984;28;20186;-63
2020/12/14 06:41:13;;;;;;;4.40;3.92;;;;;;;;;;5035537;28;20276;-62
2020/12/14 06:43:40;;;;;;;4.10;3.70;;;;;;;;;;5036832;28;20213;-64
2020/12/14 06:46:07;;;;;;;4.38;3.63;;;;;;;;;;5036253;28;20226;-64
2020/12/14 06:48:42;;;;;;;5.72;3.95;;;;;;;;;;5036033;28;20202;-63
2020/12/14 06:51:09;;;;;;;4.00;3.60;;;;;;;;;;5036794;28;20223;-63
2020/12/14 06:53:47;;;;;;;3.60;3.30;;;;;;;;;;5036233;28;20206;-64
2020/12/14 06:56:17;;;;;;;5.28;3.85;;;;;;;;;;5035729;28;20488;-65
2020/12/14 06:58:44;;;;;;;6.85;4.25;;;;;;;;;;5036989;28;20260;-64
2020/12/14 07:01:30;;;;;;;4.20;3.80;;;;;;;;;;5039891;28;20741;-63
2020/12/14 07:03:57;;;;;;;6.97;3.35;;;;;;;;;;5039074;28;20252;-63
2020/12/14 07:06:26;;;;;;;5.68;3.75;;;;;;;;;;5037193;28;20234;-64
2020/12/14 07:08:53;;;;;;;3.70;3.35;;;;;;;;;;5035460;28;20206;-63
2020/12/14 07:11:21;;;;;;;4.97;3.78;;;;;;;;;;5034746;28;20646;-64
2020/12/14 07:13:48;;;;;;;4.88;3.65;;;;;;;;;;5034747;28;20279;-64
2020/12/14 07:16:15;;;;;;;4.63;3.58;;;;;;;;;;5034843;28;20615;-64
2020/12/14 07:18:43;;;;;;;6.18;4.03;;;;;;;;;;5034973;28;20198;-63
2020/12/14 07:21:11;;;;;;;10.57;3.90;;;;;;;;;;5035161;28;20229;-64
2020/12/14 07:23:39;;;;;;;4.57;4.13;;;;;;;;;;5034884;28;20282;-64
2020/12/14 07:26:07;;;;;;;4.13;3.72;;;;;;;;;;5037669;28;20559;-64
2020/12/14 07:28:34;;;;;;;4.25;3.58;;;;;;;;;;5038718;28;20209;-64
2020/12/14 07:31:04;;;;;;;4.60;4.20;;;;;;;;;;5036902;28;20305;-63
2020/12/14 07:33:31;;;;;;;4.55;3.78;;;;;;;;;;5036083;28;20670;-63
2020/12/14 07:36:01;;;;;;;4.00;3.58;;;;;;;;;;5034752;28;20198;-64
2020/12/14 07:38:28;;;;;;;5.00;3.85;;;;;;;;;;5034769;28;20190;-63
2020/12/14 07:41:05;;;;;;;5.60;3.65;;;;;;;;;;5034235;28;20244;-63
2020/12/14 07:43:32;;;;;;;5.75;4.65;;;;;;;;;;5034454;28;20190;-63
2020/12/14 07:45:59;;;;;;;4.00;3.60;;;;;;;;;;5034110;28;20218;-63
2020/12/14 07:48:26;;;;;;;4.20;3.80;;;;;;;;;;5034789;28;20674;-64
2020/12/14 07:50:52;;;;;;;5.20;3.40;;;;;;;;;;5034193;28;20226;-65
2020/12/14 07:53:19;;;;;;;3.65;3.35;;;;;;;;;;5034364;28;20275;-64
2020/12/14 07:55:46;;;;;;;6.72;3.55;;;;;;;;;;5034250;28;20625;-64
2020/12/14 07:58:13;;;;;;;4.53;3.38;;;;;;;;;;5034392;28;20618;-64
2020/12/14 08:00:40;;;;;;;7.35;4.30;;;;;;;;;;5034614;28;20280;-63
2020/12/14 08:03:08;;;;;;;4.47;2.95;;;;;;;;;;5036028;28;20213;-64
2020/12/14 08:05:34;;;;;;;3.70;3.40;;;;;;;;;;5035350;28;20218;-65
2020/12/14 08:08:03;;;;;;;4.38;3.25;;;;;;;;;;5036458;28;20186;-65
2020/12/14 08:10:31;;;;;;;3.60;3.10;;;;;;;;;;5035767;28;20222;-63
2020/12/14 08:12:58;;;;;;;3.47;2.95;;;;;;;;;;5035390;28;20198;-63
2020/12/14 08:15:25;;;;;;;3.75;3.17;;;;;;;;;;5034541;28;20233;-63
2020/12/14 08:17:53;;;;;;;3.95;3.08;;;;;;;;;;5034597;28;20198;-64
2020/12/14 08:20:27;;;;;;;3.25;2.92;;;;;;;;;;5034104;28;20283;-64
2020/12/14 08:22:54;;;;;;;3.75;3.00;;;;;;;;;;5034301;28;20198;-64
2020/12/14 08:25:22;;;;;;;3.28;2.72;;;;;;;;;;5034015;28;20277;-64
2020/12/14 08:27:50;;;;;;;5.00;4.13;;;;;;;;;;5033739;28;20222;-64
2020/12/14 08:30:17;;;;;;;4.13;3.08;;;;;;;;;;5033392;28;20237;-64
2020/12/14 08:32:44;;;;;;;3.20;2.90;;;;;;;;;;5033621;28;20695;-64
2020/12/14 08:35:21;;;;;;;3.45;2.88;;;;;;;;;;5033833;28;20252;-64
2020/12/14 08:37:49;;;;;;;3.38;2.72;;;;;;;;;;5035187;28;20206;-63
2020/12/14 08:40:16;;;;;;;5.65;4.47;;;;;;;;;;5033630;28;20226;-63
2020/12/14 08:42:43;;;;;;;5.30;3.92;;;;;;;;;;5034190;28;20285;-64
2020/12/14 08:45:10;;;;;;;2.90;2.42;;;;;;;;;;5034080;28;20202;-63
2020/12/14 08:47:38;;;;;;;4.22;2.90;;;;;;;;;;5033567;28;20222;-64
2020/12/14 08:50:05;;;;;;;3.55;2.85;;;;;;;;;;5033656;28;20272;-64
2020/12/14 08:52:33;;;;;;;5.15;2.85;;;;;;;;;;5035135;28;20207;-63
2020/12/14 08:54:59;;;;;;;4.47;2.88;;;;;;;;;;5037907;28;20674;-65
2020/12/14 08:57:26;;;;;;;3.40;2.95;;;;;;;;;;5038008;28;20671;-63
2020/12/14 09:00:06;;;;;;;6.90;3.88;;;;;;;;;;5038248;28;20226;-63
2020/12/14 09:02:33;;;;;;;6.38;3.10;;;;;;;;;;5037535;28;20190;-63
2020/12/14 09:05:00;;;;;;;4.30;3.05;;;;;;;;;;5037555;28;20264;-64
2020/12/14 09:07:27;;;;;;;5.55;2.22;;;;;;;;;;5037277;28;20234;-63
2020/12/14 09:09:55;;;;;;;2.42;2.22;;;;;;;;;;5037858;28;20276;-65
2020/12/14 09:12:22;;;;;;;4.03;2.88;;;;;;;;;;5037926;28;20702;-63
2020/12/14 09:14:48;;;;;;;4.65;2.10;;;;;;;;;;5037419;28;20214;-64
2020/12/14 09:17:16;;;;;;;9.18;3.00;;;;;;;;;;5037238;28;20204;-64
2020/12/14 09:19:50;;;;;;;3.53;2.22;;;;;;;;;;5036606;28;20206;-62
2020/12/14 09:22:21;;;;;;;2.35;1.90;;;;;;;;;;5036993;28;20277;-64
2020/12/14 09:24:47;;;;;;;2.85;1.90;;;;;;;;;;5036951;28;20190;-63
2020/12/14 09:27:15;;;;;;;2.58;2.03;;;;;;;;;;5036453;28;20775;-65
2020/12/14 09:29:42;;;;;;;2.88;1.80;;;;;;;;;;5036554;28;20312;-65
2020/12/14 09:32:10;;;;;;;4.28;2.28;;;;;;;;;;5037403;28;20284;-63
2020/12/14 09:34:37;;;;;;;4.82;2.15;;;;;;;;;;5037014;28;20544;-64
2020/12/14 09:37:05;;;;;;;2.08;1.70;;;;;;;;;;5036954;28;20202;-64
2020/12/14 09:39:32;;;;;;;9.68;2.30;;;;;;;;;;5036512;28;20686;-65
2020/12/14 09:41:59;;;;;;;3.15;2.00;;;;;;;;;;5037954;28;20206;-63
2020/12/14 09:44:28;;;;;;;2.33;2.10;;;;;;;;;;5036710;28;20671;-63
2020/12/14 09:46:55;;;;;;;3.03;1.95;;;;;;;;;;5036281;28;20218;-64
2020/12/14 09:49:22;;;;;;;3.25;1.67;;;;;;;;;;5037758;28;20202;-64
2020/12/14 09:51:49;;;;;;;2.35;1.75;;;;;;;;;;5050446;28;20218;-64
2020/12/14 09:54:16;;;;;;;3.15;2.17;;;;;;;;;;5049689;28;20230;-64
2020/12/14 09:56:43;;;;;;;5.38;2.20;;;;;;;;;;5049536;28;20199;-64
2020/12/14 09:59:10;;;;;;;2.67;1.80;;;;;;;;;;5049222;28;20206;-64
2020/12/14 10:01:37;;;;;;;3.90;2.03;;;;;;;;;;5045937;28;20253;-64
2020/12/14 10:04:04;;;;;;;4.68;2.05;;;;;;;;;;5045652;28;20198;-64
2020/12/14 10:06:31;;;;;;;2.80;1.90;;;;;;;;;;5042208;28;20284;-64
2020/12/14 10:08:58;;;;;;;5.15;2.25;;;;;;;;;;5042161;28;20209;-64
2020/12/14 10:11:25;;;;;;;4.65;1.90;;;;;;;;;;5039646;28;20222;-63
2020/12/14 10:13:52;;;;;;;2.42;1.80;;;;;;;;;;5039243;28;20535;-64
2020/12/14 10:16:19;;;;;;;5.00;2.15;;;;;;;;;;5038766;28;20206;-64
2020/12/14 10:18:46;;;;;;;1.92;1.60;;;;;;;;;;5038654;28;20253;-63
2020/12/14 10:21:13;;;;;;;3.72;1.90;;;;;;;;;;5036674;28;20227;-64
2020/12/14 10:23:40;;;;;;;4.22;2.05;;;;;;;;;;5036142;28;20206;-64
2020/12/14 10:26:08;;;;;;;3.05;1.67;;;;;;;;;;5035647;28;20222;-64
2020/12/14 10:28:36;;;;;;;4.25;1.98;;;;;;;;;;5035774;28;20693;-64
2020/12/14 10:31:02;;;;;;;3.05;2.05;;;;;;;;;;5037389;28;20222;-64
2020/12/14 10:33:30;;;;;;;2.30;2.00;;;;;;;;;;5035327;28;20693;-63
2020/12/14 10:35:58;;;;;;;2.05;1.52;;;;;;;;;;5034973;28;20213;-64
2020/12/14 10:38:25;;;;;;;3.30;1.90;;;;;;;;;;5034991;28;20742;-62
2020/12/14 10:40:51;;;;;;;3.00;1.70;;;;;;;;;;5034539;28;20710;-64
2020/12/14 10:43:18;;;;;;;2.08;1.88;;;;;;;;;;5034255;28;20256;-65
2020/12/14 10:45:45;;;;;;;2.90;2.22;;;;;;;;;;5034952;28;20232;-64
2020/12/14 10:48:12;;;;;;;3.38;2.00;;;;;;;;;;5035452;28;20270;-64
2020/12/14 10:50:39;;;;;;;3.00;2.45;;;;;;;;;;5035224;28;20222;-64
2020/12/14 10:53:06;;;;;;;3.42;2.00;;;;;;;;;;5035455;28;20206;-64
2020/12/14 10:55:33;;;;;;;4.20;2.35;;;;;;;;;;5036429;28;20253;-64
2020/12/14 10:58:00;;;;;;;3.00;1.80;;;;;;;;;;5035474;28;20259;-63
2020/12/14 11:00:27;;;;;;;2.15;1.70;;;;;;;;;;5035732;28;20233;-65
2020/12/14 11:02:57;;;;;;;4.38;1.90;;;;;;;;;;5034947;28;20344;-65
2020/12/14 11:05:23;;;;;;;2.47;1.73;;;;;;;;;;5034364;28;20214;-66
2020/12/14 11:07:50;;;;;;;2.38;1.65;;;;;;;;;;5034863;28;20379;-65
2020/12/14 11:10:18;;;;;;;1.88;1.55;;;;;;;;;;5034599;28;20281;-63
2020/12/14 11:12:44;;;;;;;2.28;1.77;;;;;;;;;;5035117;28;20210;-66
2020/12/14 11:15:11;;;;;;;7.72;6.65;;;;;;;;;;5034462;28;20619;-64
2020/12/14 11:17:38;;;;;;;2.42;1.90;;;;;;;;;;5034708;28;20689;-64
2020/12/14 11:20:08;;;;;;;2.50;2.10;;;;;;;;;;5034594;28;20591;-64
2020/12/14 11:22:35;;;;;;;3.28;2.17;;;;;;;;;;5034394;28;20199;-65
2020/12/14 11:25:02;;;;;;;8.02;2.05;;;;;;;;;;5034486;28;20229;-66
2020/12/14 11:27:29;;;;;;;2.92;1.98;;;;;;;;;;5035392;28;20222;-65
2020/12/14 11:29:56;;;;;;;2.08;1.63;;;;;;;;;;5034377;28;20856;-65
2020/12/14 11:32:23;;;;;;;4.63;1.70;;;;;;;;;;5035124;28;20214;-66
2020/12/14 11:34:49;;;;;;;2.22;1.50;;;;;;;;;;5035469;28;20198;-64
2020/12/14 11:37:17;;;;;;;3.72;1.90;;;;;;;;;;5033628;28;20437;-65
2020/12/14 11:39:44;;;;;;;2.40;2.00;;;;;;;;;;5034044;28;20202;-67
2020/12/14 11:42:11;;;;;;;3.35;1.73;;;;;;;;;;5034484;28;20293;-65
2020/12/14 11:44:39;;;;;;;1.67;1.50;;;;;;;;;;5035134;28;20257;-66
2020/12/14 11:47:06;;;;;;;2.80;2.05;;;;;;;;;;5034924;28;20293;-65
2020/12/14 11:49:33;;;;;;;2.67;2.10;;;;;;;;;;5034761;28;20226;-65
2020/12/14 11:52:01;;;;;;;2.60;1.25;;;;;;;;;;5035844;28;20213;-65
2020/12/14 11:54:28;;;;;;;3.15;1.70;;;;;;;;;;5034385;28;20249;-65
2020/12/14 11:56:55;;;;;;;3.92;2.15;;;;;;;;;;5034299;28;20574;-65
2020/12/14 11:59:22;;;;;;;2.58;1.90;;;;;;;;;;5033778;28;20209;-66
2020/12/14 12:01:50;;;;;;;4.28;2.17;;;;;;;;;;5033558;28;20234;-65
2020/12/14 12:04:17;;;;;;;3.05;1.88;;;;;;;;;;5033729;28;20206;-64
2020/12/14 12:06:44;;;;;;;2.67;2.00;;;;;;;;;;5032924;28;20284;-65
2020/12/14 12:09:12;;;;;;;3.42;1.98;;;;;;;;;;5033330;28;20232;-65
2020/12/14 12:11:38;;;;;;;3.78;2.58;;;;;;;;;;5033977;28;20314;-64
2020/12/14 12:14:05;;;;;;;2.85;2.53;;;;;;;;;;5034128;28;20739;-64
2020/12/14 12:16:32;;;;;;;3.00;2.10;;;;;;;;;;5034308;28;20194;-67
2020/12/14 12:18:59;;;;;;;1.95;1.60;;;;;;;;;;5034855;28;20670;-65
2020/12/14 12:21:26;;;;;;;2.95;1.60;;;;;;;;;;5034031;28;20221;-65
2020/12/14 12:23:53;;;;;;;2.10;1.90;;;;;;;;;;5033822;28;20207;-65
2020/12/14 12:26:20;;;;;;;2.72;2.25;;;;;;;;;;5033125;28;20670;-65
2020/12/14 12:28:46;;;;;;;2.47;1.80;;;;;;;;;;5036662;28;20222;-65
2020/12/14 12:31:13;;;;;;;3.20;1.88;;;;;;;;;;5037437;28;20222;-63
2020/12/14 12:33:41;;;;;;;4.85;1.90;;;;;;;;;;5037658;28;20202;-65
2020/12/14 12:36:10;;;;;;;2.38;1.95;;;;;;;;;;5038216;28;20252;-64
2020/12/14 12:38:37;;;;;;;4.05;1.90;;;;;;;;;;5037726;28;20206;-66
2020/12/14 12:41:03;;;;;;;5.28;2.65;;;;;;;;;;5037510;28;20241;-63
2020/12/14 12:43:30;;;;;;;4.38;2.08;;;;;;;;;;5037400;28;20304;-65
2020/12/14 12:45:57;;;;;;;4.57;2.33;;;;;;;;;;5036946;28;20256;-65
2020/12/14 12:48:24;;;;;;;2.40;1.80;;;;;;;;;;5036863;28;20218;-65
2020/12/14 12:50:53;;;;;;;3.22;1.83;;;;;;;;;;5036658;28;20652;-64
2020/12/14 12:53:22;;;;;;;4.03;1.88;;;;;;;;;;5036845;28;20221;-64
2020/12/14 12:55:49;;;;;;;1.73;1.40;;;;;;;;;;5036553;28;20253;-65
2020/12/14 12:58:16;;;;;;;3.90;2.13;;;;;;;;;;5036792;28;20202;-64
2020/12/14 13:00:42;;;;;;;2.75;2.10;;;;;;;;;;5036311;28;20276;-64
2020/12/14 13:03:09;;;;;;;2.28;1.73;;;;;;;;;;5036775;28;20650;-63
2020/12/14 13:05:37;;;;;;;3.83;2.00;;;;;;;;;;5036161;28;20210;-65
2020/12/14 13:08:04;;;;;;;5.22;2.95;;;;;;;;;;5036516;28;20614;-66
2020/12/14 13:10:32;;;;;;;3.38;2.22;;;;;;;;;;5036647;28;20280;-63
2020/12/14 13:12:58;;;;;;;3.42;2.35;;;;;;;;;;5036580;28;20611;-63
2020/12/14 13:15:25;;;;;;;2.22;1.83;;;;;;;;;;5036530;28;20206;-65
2020/12/14 13:17:52;;;;;;;5.40;2.65;;;;;;;;;;5036298;28;20272;-64
2020/12/14 13:20:19;;;;;;;4.00;2.22;;;;;;;;;;5036307;28;20286;-64
2020/12/14 13:22:45;;;;;;;3.83;2.40;;;;;;;;;;5036109;28;20202;-64
2020/12/14 13:25:12;;;;;;;4.07;2.90;;;;;;;;;;5037584;28;20599;-63
2020/12/14 13:27:40;;;;;;;2.38;2.13;;;;;;;;;;5036083;28;20476;-65
2020/12/14 13:30:07;;;;;;;3.30;2.60;;;;;;;;;;5036177;28;20229;-64
2020/12/14 13:32:33;;;;;;;3.03;2.43;;;;;;;;;;5036067;28;20206;-65
2020/12/14 13:35:00;;;;;;;3.70;2.80;;;;;;;;;;5036970;28;20535;-65
2020/12/14 13:37:27;;;;;;;7.78;4.80;;;;;;;;;;5035810;28;20203;-65
2020/12/14 13:39:54;;;;;;;3.38;2.00;;;;;;;;;;5035897;28;20226;-64
2020/12/14 13:42:20;;;;;;;5.10;4.70;;;;;;;;;;5035375;28;20572;-65
2020/12/14 13:44:48;;;;;;;2.60;2.10;;;;;;;;;;5035803;28;20445;-64
2020/12/14 13:47:15;;;;;;;3.97;2.05;;;;;;;;;;5035808;28;20218;-66
2020/12/14 13:49:41;;;;;;;2.47;1.93;;;;;;;;;;5039734;28;20229;-64
2020/12/14 13:52:08;;;;;;;2.15;1.85;;;;;;;;;;5038273;28;20809;-66
2020/12/14 13:54:35;;;;;;;1.50;1.40;;;;;;;;;;5036584;28;20206;-65
2020/12/14 13:57:02;;;;;;;2.33;1.95;;;;;;;;;;5036439;28;20206;-65
2020/12/14 13:59:28;;;;;;;2.10;1.90;;;;;;;;;;5036544;28;20207;-65
2020/12/14 14:01:56;;;;;;;2.50;2.28;;;;;;;;;;5037284;28;20206;-64
2020/12/14 14:04:23;;;;;;;3.13;1.75;;;;;;;;;;5036775;28;20202;-65
2020/12/14 14:06:50;;;;;;;2.47;2.08;;;;;;;;;;5037670;28;20271;-64
2020/12/14 14:09:17;;;;;;;5.68;2.10;;;;;;;;;;5038517;28;20268;-63
2020/12/14 14:11:48;;;;;;;4.23;2.00;;;;;;;;;;5036942;28;20229;-66
2020/12/14 14:14:15;;;;;;;3.58;1.95;;;;;;;;;;5036776;28;20425;-64
2020/12/14 14:16:42;;;;;;;2.80;1.83;;;;;;;;;;5036131;28;20198;-65
2020/12/14 14:19:09;;;;;;;2.53;1.70;;;;;;;;;;5036278;28;20212;-67
2020/12/14 14:21:36;;;;;;;2.17;1.85;;;;;;;;;;5035880;28;20296;-66
2020/12/14 14:24:03;;;;;;;4.45;1.80;;;;;;;;;;5035876;28;20217;-68
2020/12/14 14:26:30;;;;;;;2.90;2.40;;;;;;;;;;5035974;28;20198;-66
2020/12/14 14:28:56;;;;;;;3.75;2.00;;;;;;;;;;5035377;28;20202;-64
2020/12/14 14:31:23;;;;;;;4.00;1.88;;;;;;;;;;5036269;28;20233;-65
2020/12/14 14:33:50;;;;;;;2.20;1.75;;;;;;;;;;5035586;28;20256;-65
2020/12/14 14:36:18;;;;;;;3.83;2.13;;;;;;;;;;5035219;28;20214;-64
2020/12/14 14:38:45;;;;;;;2.10;1.55;;;;;;;;;;5035738;28;20198;-66
2020/12/14 14:41:12;;;;;;;1.67;1.58;;;;;;;;;;5034658;28;20229;-65
2020/12/14 14:43:38;;;;;;;1.77;1.38;;;;;;;;;;5034721;28;20210;-64